TAF Text Data
IDs:
Format:
Raw Decoded Include METAR

Data at: 1537 UTC 27 Nov 2021

KPWM 271320Z 2713/2812 27010KT P6SM SCT050
  FM271700 28014G24KT P6SM BKN050
  FM272300 29009KT P6SM FEW250